createdAt,value
2023-06-11T00:00:03.845Z,117.71
2023-06-11T00:01:02.949Z,120.13
2023-06-11T00:02:03.085Z,119.09
2023-06-11T00:03:04.082Z,118.91
2023-06-11T00:04:03.155Z,117.03
2023-06-11T00:05:04.206Z,118.44
2023-06-11T00:06:04.221Z,119.57
2023-06-11T00:07:04.297Z,118.27
2023-06-11T00:08:04.361Z,117.23
2023-06-11T00:09:03.411Z,118.79
2023-06-11T00:10:04.501Z,116.59
2023-06-11T00:11:04.555Z,115.56
2023-06-11T00:12:04.601Z,120.15
2023-06-11T00:13:04.661Z,118.96
2023-06-11T00:14:04.727Z,117.17
2023-06-11T00:15:04.763Z,118.42
2023-06-11T00:16:03.862Z,117.68
2023-06-11T00:17:03.974Z,116.45
2023-06-11T00:18:04.897Z,119.43
2023-06-11T00:19:04.925Z,117.81
2023-06-11T00:20:04.986Z,116.47
2023-06-11T00:21:05.024Z,120.06
2023-06-11T00:22:05.070Z,118.44
2023-06-11T00:23:04.136Z,119.74
2023-06-11T00:24:05.273Z,120.17
2023-06-11T00:25:05.243Z,119.56
2023-06-11T00:26:04.322Z,119.13
2023-06-11T00:27:05.340Z,118.15
2023-06-11T00:28:05.416Z,119.91
2023-06-11T00:29:05.449Z,121.85
2023-06-11T00:30:05.571Z,117.42
2023-06-11T00:31:05.600Z,116.62
2023-06-11T00:32:05.722Z,118.72
2023-06-11T00:33:04.726Z,116.93
2023-06-11T00:34:05.688Z,114.16
2023-06-11T00:35:05.726Z,115.88
2023-06-11T00:36:05.756Z,118.28
2023-06-11T00:37:05.753Z,118.57
2023-06-11T00:38:05.802Z,115.09
2023-06-11T00:39:05.850Z,118.97
2023-06-11T00:40:05.862Z,117.56
2023-06-11T00:41:05.884Z,117.48
2023-06-11T00:42:05.917Z,116.85
2023-06-11T00:43:05.944Z,117.83
2023-06-11T00:44:04.985Z,119.50
2023-06-11T00:45:06.037Z,120.13
2023-06-11T00:46:05.090Z,120.12
2023-06-11T00:47:06.056Z,115.42
2023-06-11T00:48:06.152Z,118.17
2023-06-11T00:49:06.141Z,118.33
2023-06-11T00:50:05.192Z,118.38
2023-06-11T00:51:06.143Z,118.20
2023-06-11T00:52:06.155Z,114.69
2023-06-11T00:53:06.164Z,115.61
2023-06-11T00:54:05.176Z,117.81
2023-06-11T00:55:06.202Z,116.22
2023-06-11T00:56:06.217Z,118.14
2023-06-11T00:57:06.233Z,115.60
2023-06-11T00:58:06.262Z,117.73
2023-06-11T00:59:06.220Z,119.35
2023-06-11T01:00:06.222Z,118.57
2023-06-11T01:01:06.251Z,117.10
2023-06-11T01:02:06.212Z,118.60
2023-06-11T01:03:06.242Z,117.78
2023-06-11T01:04:05.328Z,116.57
2023-06-11T01:05:06.406Z,118.96
2023-06-11T01:06:06.270Z,117.53
2023-06-11T01:07:05.307Z,113.58
2023-06-11T01:08:05.321Z,116.95
2023-06-11T01:09:06.357Z,116.85
2023-06-11T01:10:06.386Z,118.35
2023-06-11T01:11:06.190Z,113.92
2023-06-11T01:12:06.472Z,116.26
2023-06-11T01:13:06.484Z,114.79
2023-06-11T01:14:06.503Z,116.63
2023-06-11T01:15:06.556Z,114.34
2023-06-11T01:16:05.587Z,117.64
2023-06-11T01:17:06.675Z,118.44
2023-06-11T01:18:06.779Z,118.17
2023-06-11T01:19:06.632Z,115.18
2023-06-11T01:20:06.633Z,116.03
2023-06-11T01:21:06.676Z,116.28
2023-06-11T01:22:06.669Z,116.11
2023-06-11T01:23:06.669Z,115.05
2023-06-11T01:24:06.763Z,115.56
2023-06-11T01:25:06.668Z,116.42
2023-06-11T01:26:06.638Z,115.98
2023-06-11T01:27:06.647Z,119.64
2023-06-11T01:28:06.640Z,118.76
2023-06-11T01:29:06.638Z,116.81
2023-06-11T01:30:06.658Z,116.20
2023-06-11T01:31:06.722Z,114.25
2023-06-11T01:32:06.646Z,114.95
2023-06-11T01:33:06.738Z,114.12
2023-06-11T01:34:06.657Z,114.46
2023-06-11T01:35:06.667Z,115.74
2023-06-11T01:36:06.762Z,115.60
2023-06-11T01:37:06.695Z,117.39
2023-06-11T01:38:06.661Z,116.42
2023-06-11T01:39:06.670Z,113.74
2023-06-11T01:40:06.677Z,116.15
2023-06-11T01:41:05.661Z,116.49
2023-06-11T01:42:06.659Z,113.42
2023-06-11T01:43:05.679Z,115.50
2023-06-11T01:44:06.655Z,116.85
2023-06-11T01:45:06.646Z,116.47
2023-06-11T01:46:06.727Z,116.33
2023-06-11T01:47:06.722Z,114.72
2023-06-11T01:48:06.699Z,115.00
2023-06-11T01:49:06.638Z,116.68
2023-06-11T01:50:06.644Z,116.08
2023-06-11T01:51:06.617Z,114.54
2023-06-11T01:52:05.621Z,113.56
2023-06-11T01:53:06.653Z,115.33
2023-06-11T01:54:05.612Z,116.33
2023-06-11T01:55:05.610Z,117.11
2023-06-11T01:56:06.595Z,114.73
2023-06-11T01:57:06.599Z,113.90
2023-06-11T01:58:06.596Z,116.29
2023-06-11T01:59:06.607Z,114.30
2023-06-11T02:00:06.624Z,114.17
2023-06-11T02:01:06.571Z,111.94
2023-06-11T02:02:05.711Z,114.09
2023-06-11T02:03:06.886Z,118.22
2023-06-11T02:04:06.796Z,116.39
2023-06-11T02:05:06.584Z,115.13
2023-06-11T02:06:05.584Z,116.29
2023-06-11T02:07:06.568Z,114.91
2023-06-11T02:08:05.570Z,114.62
2023-06-11T02:09:06.603Z,116.14
2023-06-11T02:10:06.570Z,114.41
2023-06-11T02:11:05.550Z,112.87
2023-06-11T02:12:05.564Z,115.14
2023-06-11T02:13:06.564Z,114.07
2023-06-11T02:14:06.549Z,114.73
2023-06-11T02:15:05.568Z,115.51
2023-06-11T02:16:06.572Z,115.27
2023-06-11T02:17:05.557Z,118.72
2023-06-11T02:18:06.590Z,117.08
2023-06-11T02:19:06.559Z,116.78
2023-06-11T02:20:06.548Z,115.25
2023-06-11T02:21:05.561Z,115.97
2023-06-11T02:22:06.549Z,115.63
2023-06-11T02:23:06.577Z,117.54
2023-06-11T02:24:06.595Z,114.14
2023-06-11T02:25:06.584Z,114.33
2023-06-11T02:26:05.543Z,114.70
2023-06-11T02:27:05.519Z,114.78
2023-06-11T02:28:06.532Z,113.65
2023-06-11T02:29:05.535Z,115.69
2023-06-11T02:30:06.533Z,115.08
2023-06-11T02:31:06.539Z,114.51
2023-06-11T02:32:05.628Z,115.77
2023-06-11T02:33:06.606Z,115.60
2023-06-11T02:34:06.540Z,118.02
2023-06-11T02:35:05.537Z,118.89
2023-06-11T02:36:06.559Z,114.93
2023-06-11T02:37:05.550Z,114.69
2023-06-11T02:38:06.551Z,115.34
2023-06-11T02:39:05.541Z,115.46
2023-06-11T02:40:06.554Z,115.13
2023-06-11T02:41:05.585Z,114.26
2023-06-11T02:42:06.549Z,115.26
2023-06-11T02:43:06.547Z,113.28
2023-06-11T02:44:06.557Z,113.97
2023-06-11T02:45:06.571Z,113.33
2023-06-11T02:46:06.605Z,115.83
2023-06-11T02:47:06.568Z,116.03
2023-06-11T02:48:06.585Z,113.81
2023-06-11T02:49:06.592Z,113.71
2023-06-11T02:50:06.576Z,115.69
2023-06-11T02:51:06.573Z,114.53
2023-06-11T02:52:06.584Z,113.21
2023-06-11T02:53:06.573Z,115.48
2023-06-11T02:54:05.588Z,114.81
2023-06-11T02:55:06.594Z,112.62
2023-06-11T02:56:06.618Z,116.54
2023-06-11T02:57:06.635Z,113.77
2023-06-11T02:58:06.606Z,114.19
2023-06-11T02:59:06.622Z,117.67
2023-06-11T03:00:06.646Z,113.10
2023-06-11T03:01:06.659Z,115.70
2023-06-11T03:02:06.639Z,114.08
2023-06-11T03:03:06.696Z,113.66
2023-06-11T03:04:05.638Z,115.30
2023-06-11T03:05:06.640Z,113.46
2023-06-11T03:06:06.661Z,113.98
2023-06-11T03:07:05.648Z,111.66
2023-06-11T03:08:06.650Z,115.35
2023-06-11T03:09:06.666Z,114.72
2023-06-11T03:10:06.665Z,116.96
2023-06-11T03:11:05.674Z,112.51
2023-06-11T03:12:06.665Z,115.39
2023-06-11T03:13:06.701Z,114.88
2023-06-11T03:14:06.701Z,114.69
2023-06-11T03:15:06.688Z,116.17
2023-06-11T03:16:06.789Z,115.40
2023-06-11T03:17:06.713Z,116.51
2023-06-11T03:18:06.784Z,113.77
2023-06-11T03:19:06.700Z,113.77
2023-06-11T03:20:06.714Z,115.79
2023-06-11T03:21:06.729Z,112.01
2023-06-11T03:22:05.725Z,114.11
2023-06-11T03:23:06.726Z,110.16
2023-06-11T03:24:06.753Z,113.57
2023-06-11T03:25:06.724Z,118.68
2023-06-11T03:26:06.743Z,115.77
2023-06-11T03:27:06.735Z,115.24
2023-06-11T03:28:05.733Z,117.56
2023-06-11T03:29:06.756Z,115.51
2023-06-11T03:30:06.740Z,115.59
2023-06-11T03:31:06.781Z,113.51
2023-06-11T03:32:06.767Z,117.85
2023-06-11T03:33:06.804Z,112.76
2023-06-11T03:34:06.782Z,112.79
2023-06-11T03:35:06.805Z,115.95
2023-06-11T03:36:06.807Z,118.00
2023-06-11T03:37:06.823Z,115.53
2023-06-11T03:38:06.836Z,114.71
2023-06-11T03:39:05.846Z,117.14
2023-06-11T03:40:06.874Z,114.24
2023-06-11T03:41:05.894Z,115.01
2023-06-11T03:42:06.887Z,113.07
2023-06-11T03:43:05.900Z,112.04
2023-06-11T03:44:05.908Z,113.49
2023-06-11T03:45:06.953Z,113.94
2023-06-11T03:46:06.950Z,114.77
2023-06-11T03:47:07.053Z,113.88
2023-06-11T03:48:07.064Z,117.19
2023-06-11T03:49:06.964Z,113.83
2023-06-11T03:50:06.957Z,114.34
2023-06-11T03:51:05.967Z,116.66
2023-06-11T03:52:05.972Z,114.84
2023-06-11T03:53:06.990Z,114.40
2023-06-11T03:54:06.995Z,115.66
2023-06-11T03:55:07.023Z,112.23
2023-06-11T03:56:07.016Z,116.29
2023-06-11T03:57:07.026Z,109.65
2023-06-11T03:58:07.050Z,114.29
2023-06-11T03:59:07.035Z,116.57
2023-06-11T04:00:07.036Z,114.34
2023-06-11T04:01:07.082Z,114.76
2023-06-11T04:02:07.090Z,113.19
2023-06-11T04:03:06.230Z,113.40
2023-06-11T04:04:07.281Z,113.20
2023-06-11T04:05:07.130Z,111.88
2023-06-11T04:06:07.099Z,116.14
2023-06-11T04:07:07.108Z,114.99
2023-06-11T04:08:07.108Z,113.87
2023-06-11T04:09:07.126Z,116.46
2023-06-11T04:10:06.151Z,116.43
2023-06-11T04:11:07.257Z,115.50
2023-06-11T04:12:07.189Z,115.84
2023-06-11T04:13:06.173Z,116.02
2023-06-11T04:14:07.184Z,109.69
2023-06-11T04:15:07.223Z,115.47
2023-06-11T04:16:07.668Z,114.65
2023-06-11T04:17:07.307Z,114.05
2023-06-11T04:18:07.392Z,114.14
2023-06-11T04:19:07.280Z,114.81
2023-06-11T04:20:07.303Z,113.17
2023-06-11T04:21:07.306Z,111.95
2023-06-11T04:22:07.292Z,108.52
2023-06-11T04:23:07.302Z,113.13
2023-06-11T04:24:09.528Z,115.60
2023-06-11T04:25:06.289Z,115.10
2023-06-11T04:26:06.304Z,110.50
2023-06-11T04:27:07.271Z,111.72
2023-06-11T04:28:07.275Z,111.05
2023-06-11T04:29:07.251Z,114.03
2023-06-11T04:30:06.260Z,112.20
2023-06-11T04:31:07.254Z,114.08
2023-06-11T04:32:06.244Z,113.60
2023-06-11T04:33:06.324Z,111.56
2023-06-11T04:34:06.224Z,111.86
2023-06-11T04:35:07.275Z,112.91
2023-06-11T04:36:06.222Z,111.16
2023-06-11T04:37:07.211Z,110.32
2023-06-11T04:38:07.200Z,110.57
2023-06-11T04:39:06.181Z,112.85
2023-06-11T04:40:07.184Z,111.06
2023-06-11T04:41:07.169Z,115.07
2023-06-11T04:42:07.182Z,111.73
2023-06-11T04:43:07.167Z,112.67
2023-06-11T04:44:07.154Z,111.84
2023-06-11T04:45:07.154Z,111.90
2023-06-11T04:46:07.200Z,110.08
2023-06-11T04:47:07.205Z,112.01
2023-06-11T04:48:07.187Z,108.03
2023-06-11T04:49:07.155Z,109.21
2023-06-11T04:50:07.107Z,110.01
2023-06-11T04:51:06.100Z,109.80
2023-06-11T04:52:06.105Z,106.11
2023-06-11T04:53:06.088Z,111.29
2023-06-11T04:54:07.095Z,108.22
2023-06-11T04:55:06.077Z,112.96
2023-06-11T04:56:07.069Z,114.07
2023-06-11T04:57:07.087Z,110.43
2023-06-11T04:58:07.049Z,112.84
2023-06-11T04:59:06.051Z,107.39
2023-06-11T05:00:07.048Z,111.51
2023-06-11T05:01:07.066Z,111.50
2023-06-11T05:02:07.048Z,111.66
2023-06-11T05:03:07.089Z,110.85
2023-06-11T05:04:07.005Z,111.72
2023-06-11T05:05:07.073Z,108.86
2023-06-11T05:06:05.994Z,109.47
2023-06-11T05:07:07.005Z,111.85
2023-06-11T05:08:07.118Z,111.72
2023-06-11T05:09:06.982Z,111.00
2023-06-11T05:10:06.978Z,108.03
2023-06-11T05:11:06.978Z,110.34
2023-06-11T05:12:06.965Z,112.31
2023-06-11T05:13:06.966Z,114.94
2023-06-11T05:14:05.961Z,111.23
2023-06-11T05:15:06.941Z,107.73
2023-06-11T05:16:07.038Z,106.79
2023-06-11T05:17:06.936Z,109.63
2023-06-11T05:18:06.965Z,111.81
2023-06-11T05:19:06.929Z,111.64
2023-06-11T05:20:06.915Z,107.66
2023-06-11T05:21:06.939Z,110.81
2023-06-11T05:22:06.898Z,107.79
2023-06-11T05:23:05.916Z,111.36
2023-06-11T05:24:05.965Z,108.80
2023-06-11T05:25:05.885Z,108.01
2023-06-11T05:26:06.878Z,107.36
2023-06-11T05:27:06.872Z,108.44
2023-06-11T05:28:06.860Z,109.74
2023-06-11T05:29:06.851Z,109.11
2023-06-11T05:30:06.841Z,110.23
2023-06-11T05:31:05.840Z,108.11
2023-06-11T05:32:07.024Z,108.29
2023-06-11T05:33:06.881Z,110.45
2023-06-11T05:34:06.823Z,109.84
2023-06-11T05:35:06.824Z,107.95
2023-06-11T05:36:06.818Z,106.93
2023-06-11T05:37:06.834Z,111.57
2023-06-11T05:38:06.806Z,110.67
2023-06-11T05:39:05.788Z,110.27
2023-06-11T05:40:06.784Z,111.39
2023-06-11T05:41:05.782Z,108.88
2023-06-11T05:42:05.764Z,107.60
2023-06-11T05:43:05.749Z,109.53
2023-06-11T05:44:06.745Z,110.35
2023-06-11T05:45:06.738Z,108.45
2023-06-11T05:46:06.768Z,110.59
2023-06-11T05:47:06.802Z,107.80
2023-06-11T05:48:06.861Z,109.26
2023-06-11T05:49:06.708Z,111.01
2023-06-11T05:50:06.710Z,109.54
2023-06-11T05:51:06.742Z,107.97
2023-06-11T05:52:06.712Z,109.88
2023-06-11T05:53:06.712Z,110.47
2023-06-11T05:54:06.703Z,111.21
2023-06-11T05:55:05.690Z,110.60
2023-06-11T05:56:05.698Z,111.59
2023-06-11T05:57:06.661Z,109.31
2023-06-11T05:58:05.652Z,113.32
2023-06-11T05:59:06.658Z,111.48
2023-06-11T06:00:06.641Z,111.76
2023-06-11T06:01:06.659Z,114.26
2023-06-11T06:02:06.677Z,114.00
2023-06-11T06:03:06.700Z,110.45
2023-06-11T06:04:06.838Z,107.15
2023-06-11T06:05:06.677Z,109.27
2023-06-11T06:06:06.610Z,112.25
2023-06-11T06:07:06.591Z,110.09
2023-06-11T06:08:05.626Z,111.32
2023-06-11T06:09:05.599Z,107.74
2023-06-11T06:10:05.594Z,109.42
2023-06-11T06:11:06.561Z,108.91
2023-06-11T06:12:06.556Z,109.02
2023-06-11T06:13:06.535Z,107.38
2023-06-11T06:14:06.548Z,108.21
2023-06-11T06:15:06.550Z,107.71
2023-06-11T06:16:05.623Z,110.34
2023-06-11T06:17:06.570Z,111.90
2023-06-11T06:18:06.666Z,109.39
2023-06-11T06:19:05.589Z,105.74
2023-06-11T06:20:06.569Z,106.28
2023-06-11T06:21:06.578Z,111.29
2023-06-11T06:22:06.593Z,110.31
2023-06-11T06:23:05.582Z,104.88
2023-06-11T06:24:05.597Z,107.65
2023-06-11T06:25:06.649Z,107.55
2023-06-11T06:26:06.614Z,109.29
2023-06-11T06:27:05.617Z,107.04
2023-06-11T06:28:06.616Z,106.87
2023-06-11T06:29:06.652Z,108.55
2023-06-11T06:30:05.620Z,109.88
2023-06-11T06:31:05.632Z,107.18
2023-06-11T06:32:05.664Z,111.70
2023-06-11T06:33:05.662Z,109.63
2023-06-11T06:34:06.654Z,111.20
2023-06-11T06:35:06.660Z,108.49
2023-06-11T06:36:05.666Z,111.15
2023-06-11T06:37:06.672Z,111.82
2023-06-11T06:38:05.670Z,109.94
2023-06-11T06:39:06.690Z,109.17
2023-06-11T06:40:05.681Z,105.90
2023-06-11T06:41:05.718Z,111.32
2023-06-11T06:42:05.702Z,105.72
2023-06-11T06:43:06.681Z,106.82
2023-06-11T06:44:05.688Z,108.68
2023-06-11T06:45:06.695Z,109.23
2023-06-11T06:46:05.712Z,110.00
2023-06-11T06:47:06.707Z,106.87
2023-06-11T06:48:06.792Z,109.26
2023-06-11T06:49:05.749Z,108.03
2023-06-11T06:50:06.703Z,106.95
2023-06-11T06:51:06.702Z,108.14
2023-06-11T06:52:06.701Z,107.13
2023-06-11T06:53:06.706Z,109.31
2023-06-11T06:54:06.723Z,108.43
2023-06-11T06:55:06.765Z,103.86
2023-06-11T06:56:05.725Z,110.02
2023-06-11T06:57:06.754Z,108.45
2023-06-11T06:58:05.732Z,110.38
2023-06-11T06:59:06.717Z,108.59
2023-06-11T07:00:05.814Z,106.40
2023-06-11T07:01:05.775Z,107.58
2023-06-11T07:02:08.708Z,107.30
2023-06-11T07:03:06.790Z,107.52
2023-06-11T07:04:05.702Z,107.53
2023-06-11T07:05:06.694Z,107.60
2023-06-11T07:06:06.762Z,105.66
2023-06-11T07:07:05.687Z,106.91
2023-06-11T07:08:06.683Z,106.22
2023-06-11T07:09:05.690Z,106.72
2023-06-11T07:10:06.678Z,109.27
2023-06-11T07:11:06.692Z,109.05
2023-06-11T07:12:06.658Z,106.63
2023-06-11T07:13:05.676Z,107.54
2023-06-11T07:14:06.647Z,108.36
2023-06-11T07:15:06.656Z,106.91
2023-06-11T07:16:06.696Z,106.22
2023-06-11T07:17:05.619Z,106.93
2023-06-11T07:18:06.646Z,106.70
2023-06-11T07:19:05.608Z,106.08
2023-06-11T07:20:06.654Z,108.23
2023-06-11T07:21:06.617Z,111.65
2023-06-11T07:22:06.585Z,105.67
2023-06-11T07:23:05.579Z,108.86
2023-06-11T07:24:06.674Z,106.40
2023-06-11T07:25:06.574Z,108.93
2023-06-11T07:26:06.568Z,107.79
2023-06-11T07:27:06.552Z,107.03
2023-06-11T07:28:05.542Z,105.97
2023-06-11T07:29:06.572Z,105.17
2023-06-11T07:30:06.541Z,103.21
2023-06-11T07:31:06.604Z,107.31
2023-06-11T07:32:05.537Z,105.33
2023-06-11T07:33:06.561Z,105.22
2023-06-11T07:34:06.517Z,110.22
2023-06-11T07:35:05.496Z,104.35
2023-06-11T07:36:06.493Z,107.15
2023-06-11T07:37:06.519Z,104.00
2023-06-11T07:38:06.475Z,106.20
2023-06-11T07:39:06.478Z,106.94
2023-06-11T07:40:06.472Z,108.63
2023-06-11T07:41:06.459Z,104.80
2023-06-11T07:42:06.452Z,106.16
2023-06-11T07:43:06.485Z,105.06
2023-06-11T07:44:06.443Z,102.30
2023-06-11T07:45:06.442Z,104.10
2023-06-11T07:46:05.508Z,104.41
2023-06-11T07:47:06.514Z,102.59
2023-06-11T07:48:05.457Z,104.33
2023-06-11T07:49:06.396Z,102.41
2023-06-11T07:50:06.383Z,104.94
2023-06-11T07:51:06.404Z,104.24
2023-06-11T07:52:06.386Z,105.35
2023-06-11T07:53:06.373Z,103.93
2023-06-11T07:54:05.359Z,103.64
2023-06-11T07:55:06.353Z,102.98
2023-06-11T07:56:06.471Z,105.86
2023-06-11T07:57:08.440Z,101.38
2023-06-11T07:58:06.342Z,101.61
2023-06-11T07:59:06.331Z,101.66
2023-06-11T08:00:06.307Z,102.67
2023-06-11T08:01:06.383Z,102.24
2023-06-11T08:02:06.349Z,101.99
2023-06-11T08:03:05.319Z,104.31
2023-06-11T08:04:06.284Z,104.92
2023-06-11T08:05:06.274Z,102.57
2023-06-11T08:06:06.341Z,102.93
2023-06-11T08:07:05.269Z,102.17
2023-06-11T08:08:06.304Z,102.67
2023-06-11T08:09:06.265Z,102.32
2023-06-11T08:10:06.240Z,103.36
2023-06-11T08:11:06.238Z,104.87
2023-06-11T08:12:06.295Z,103.29
2023-06-11T08:13:06.355Z,104.29
2023-06-11T08:14:07.022Z,105.53
2023-06-11T08:15:06.477Z,103.98
2023-06-11T08:16:06.589Z,105.34
2023-06-11T08:17:05.736Z,103.72
2023-06-11T08:18:05.685Z,103.81
2023-06-11T08:19:06.774Z,106.28
2023-06-11T08:20:05.776Z,103.60
2023-06-11T08:21:06.852Z,104.60
2023-06-11T08:22:06.884Z,104.37
2023-06-11T08:23:07.005Z,104.20
2023-06-11T08:24:07.107Z,101.63
2023-06-11T08:25:07.054Z,106.72
2023-06-11T08:26:07.111Z,106.59
2023-06-11T08:27:07.180Z,104.00
2023-06-11T08:28:07.243Z,103.74
2023-06-11T08:29:06.302Z,109.45
2023-06-11T08:30:07.357Z,104.68
2023-06-11T08:31:07.396Z,103.79
2023-06-11T08:32:07.629Z,101.77
2023-06-11T08:33:07.573Z,101.55
2023-06-11T08:34:07.556Z,101.59
2023-06-11T08:35:06.623Z,102.29
2023-06-11T08:36:07.687Z,100.39
2023-06-11T08:37:07.785Z,102.56
2023-06-11T08:38:07.808Z,100.24
2023-06-11T08:39:07.840Z,99.96
2023-06-11T08:40:07.976Z,102.16
2023-06-11T08:41:07.946Z,101.19
2023-06-11T08:42:07.974Z,100.70
2023-06-11T08:43:08.027Z,98.88
2023-06-11T08:44:08.073Z,102.12
2023-06-11T08:45:07.119Z,99.95
2023-06-11T08:46:08.296Z,100.61
2023-06-11T08:47:08.220Z,101.59
2023-06-11T08:48:08.300Z,100.92
2023-06-11T08:49:08.340Z,101.35
2023-06-11T08:50:07.377Z,102.68
2023-06-11T08:51:08.419Z,101.24
2023-06-11T08:52:08.461Z,100.31
2023-06-11T08:53:08.518Z,102.64
2023-06-11T08:54:07.558Z,104.22
2023-06-11T08:55:08.591Z,102.97
2023-06-11T08:56:08.674Z,103.27
2023-06-11T08:57:08.673Z,99.90
2023-06-11T08:58:08.714Z,103.92
2023-06-11T08:59:08.762Z,105.03
2023-06-11T09:00:08.895Z,100.48
2023-06-11T09:01:08.925Z,104.28
2023-06-11T09:02:08.005Z,103.52
2023-06-11T09:03:07.946Z,104.57
2023-06-11T09:04:08.052Z,104.91
2023-06-11T09:05:09.029Z,107.11
2023-06-11T09:06:09.077Z,104.91
2023-06-11T09:07:08.086Z,105.20
2023-06-11T09:08:09.114Z,108.18
2023-06-11T09:09:08.167Z,104.82
2023-06-11T09:10:09.692Z,104.47
2023-06-11T09:11:09.274Z,104.32
2023-06-11T09:12:09.282Z,104.95
2023-06-11T09:13:09.332Z,104.78
2023-06-11T09:14:09.361Z,105.02
2023-06-11T09:15:09.396Z,105.64
2023-06-11T09:16:08.523Z,105.34
2023-06-11T09:17:09.476Z,103.23
2023-06-11T09:18:10.018Z,107.03
2023-06-11T09:19:09.584Z,108.89
2023-06-11T09:20:10.218Z,108.58
2023-06-11T09:21:08.644Z,108.17
2023-06-11T09:22:08.657Z,111.47
2023-06-11T09:23:08.702Z,111.17
2023-06-11T09:24:08.841Z,112.51
2023-06-11T09:25:10.087Z,110.11
2023-06-11T09:26:09.798Z,109.10
2023-06-11T09:27:09.835Z,110.18
2023-06-11T09:28:09.869Z,109.89
2023-06-11T09:29:09.901Z,107.92
2023-06-11T09:30:10.121Z,108.87
2023-06-11T09:31:09.955Z,110.42
2023-06-11T09:32:31.968Z,108.60
2023-06-11T09:33:10.027Z,108.89
2023-06-11T09:34:09.961Z,109.60
2023-06-11T09:35:10.009Z,108.98
2023-06-11T09:36:09.962Z,110.58
2023-06-11T09:37:10.507Z,108.83
2023-06-11T09:38:09.938Z,106.62
2023-06-11T09:39:09.947Z,106.13
2023-06-11T09:40:10.211Z,109.56
2023-06-11T09:41:09.917Z,105.91
2023-06-11T09:42:09.929Z,105.98
2023-06-11T09:43:09.902Z,104.12
2023-06-11T09:44:09.895Z,109.46
2023-06-11T09:45:09.895Z,108.12
2023-06-11T09:46:09.916Z,107.26
2023-06-11T09:47:10.631Z,106.79
2023-06-11T09:48:09.896Z,102.87
2023-06-11T09:49:08.876Z,109.00
2023-06-11T09:50:10.195Z,106.59
2023-06-11T09:51:09.861Z,109.84
2023-06-11T09:52:09.836Z,110.43
2023-06-11T09:53:09.863Z,109.67
2023-06-11T09:54:08.819Z,105.39
2023-06-11T09:55:09.824Z,105.59
2023-06-11T09:56:11.695Z,104.77
2023-06-11T09:57:08.809Z,108.97
2023-06-11T09:58:09.808Z,107.76
2023-06-11T09:59:09.790Z,111.42
2023-06-11T10:00:09.114Z,111.57
2023-06-11T10:01:09.859Z,106.07
2023-06-11T10:02:09.782Z,111.33
2023-06-11T10:03:08.860Z,106.57
2023-06-11T10:04:09.836Z,108.08
2023-06-11T10:05:09.749Z,111.14
2023-06-11T10:06:08.733Z,111.50
2023-06-11T10:07:08.772Z,110.47
2023-06-11T10:08:09.727Z,110.79
2023-06-11T10:09:09.759Z,108.23
2023-06-11T10:10:09.861Z,111.00
2023-06-11T10:11:08.717Z,108.63
2023-06-11T10:12:09.732Z,109.13
2023-06-11T10:13:09.715Z,107.84
2023-06-11T10:14:08.693Z,109.12
2023-06-11T10:15:08.676Z,111.01
2023-06-11T10:16:09.767Z,108.02
2023-06-11T10:17:09.715Z,109.50
2023-06-11T10:18:09.782Z,109.37
2023-06-11T10:19:09.652Z,111.26
2023-06-11T10:20:09.891Z,112.42
2023-06-11T10:21:10.456Z,112.80
2023-06-11T10:22:08.634Z,109.37
2023-06-11T10:23:09.619Z,109.53
2023-06-11T10:24:09.619Z,110.79
2023-06-11T10:25:09.659Z,110.95
2023-06-11T10:26:09.593Z,112.30
2023-06-11T10:27:08.665Z,111.41
2023-06-11T10:28:08.582Z,108.79
2023-06-11T10:29:09.578Z,110.77
2023-06-11T10:30:09.893Z,109.23
2023-06-11T10:31:09.552Z,112.26
2023-06-11T10:32:08.554Z,113.66
2023-06-11T10:33:09.627Z,112.47
2023-06-11T10:34:09.617Z,112.47
2023-06-11T10:35:08.551Z,114.33
2023-06-11T10:36:09.533Z,112.35
2023-06-11T10:37:09.510Z,111.90
2023-06-11T10:38:08.549Z,113.42
2023-06-11T10:39:08.500Z,114.81
2023-06-11T10:40:09.983Z,111.35
2023-06-11T10:41:09.519Z,114.90
2023-06-11T10:42:09.480Z,111.92
2023-06-11T10:43:09.493Z,112.93
2023-06-11T10:44:09.469Z,112.23
2023-06-11T10:45:08.462Z,114.21
2023-06-11T10:46:08.517Z,109.87
2023-06-11T10:47:08.537Z,112.79
2023-06-11T10:48:09.565Z,114.05
2023-06-11T10:49:09.473Z,110.93
2023-06-11T10:50:09.914Z,109.51
2023-06-11T10:51:08.521Z,112.23
2023-06-11T10:52:09.528Z,113.22
2023-06-11T10:53:09.525Z,112.47
2023-06-11T10:54:08.566Z,114.41
2023-06-11T10:55:08.825Z,111.12
2023-06-11T10:56:09.604Z,115.09
2023-06-11T10:57:08.652Z,113.46
2023-06-11T10:58:09.624Z,116.52
2023-06-11T10:59:09.658Z,117.79
2023-06-11T11:00:10.001Z,116.38
2023-06-11T11:01:09.837Z,113.40
2023-06-11T11:02:09.713Z,115.26
2023-06-11T11:03:08.762Z,113.50
2023-06-11T11:04:08.719Z,116.65
2023-06-11T11:05:10.060Z,115.48
2023-06-11T11:06:09.752Z,115.61
2023-06-11T11:07:10.156Z,115.74
2023-06-11T11:08:09.752Z,115.81
2023-06-11T11:09:08.807Z,116.38
2023-06-11T11:10:09.793Z,115.96
2023-06-11T11:11:08.816Z,118.50
2023-06-11T11:12:08.828Z,116.57
2023-06-11T11:13:09.838Z,113.53
2023-06-11T11:14:09.821Z,119.16
2023-06-11T11:15:10.062Z,116.68
2023-06-11T11:16:09.863Z,118.93
2023-06-11T11:17:08.954Z,117.13
2023-06-11T11:18:09.909Z,115.70
2023-06-11T11:19:09.857Z,121.17
2023-06-11T11:20:08.894Z,116.17
2023-06-11T11:21:08.889Z,118.11
2023-06-11T11:22:08.908Z,115.13
2023-06-11T11:23:09.882Z,117.56
2023-06-11T11:24:09.985Z,117.89
2023-06-11T11:25:10.104Z,115.58
2023-06-11T11:26:09.904Z,114.83
2023-06-11T11:27:08.921Z,113.76
2023-06-11T11:28:08.927Z,115.02
2023-06-11T11:29:09.933Z,115.06
2023-06-11T11:30:09.025Z,117.82
2023-06-11T11:31:09.925Z,115.09
2023-06-11T11:32:09.946Z,112.28
2023-06-11T11:33:10.002Z,113.35
2023-06-11T11:34:08.925Z,113.83
2023-06-11T11:35:09.955Z,112.70
2023-06-11T11:36:08.943Z,111.73
2023-06-11T11:37:09.959Z,108.86
2023-06-11T11:38:09.973Z,110.72
2023-06-11T11:39:09.978Z,108.17
2023-06-11T11:40:10.516Z,106.80
2023-06-11T11:41:09.025Z,109.40
2023-06-11T11:42:09.024Z,108.86
2023-06-11T11:43:10.034Z,107.49
2023-06-11T11:44:10.034Z,106.62
2023-06-11T11:45:10.053Z,106.35
2023-06-11T11:46:10.069Z,105.40
2023-06-11T11:47:10.072Z,102.29
2023-06-11T11:48:09.093Z,98.48
2023-06-11T11:49:09.076Z,96.62
2023-06-11T11:50:10.243Z,98.03
2023-06-11T11:51:10.067Z,99.23
2023-06-11T11:52:10.064Z,98.64
2023-06-11T11:53:10.110Z,94.58
2023-06-11T11:54:09.062Z,99.75
2023-06-11T11:55:09.085Z,95.65
2023-06-11T11:56:10.072Z,97.11
2023-06-11T11:57:10.076Z,96.13
2023-06-11T11:58:10.075Z,100.56
2023-06-11T11:59:10.057Z,98.42
2023-06-11T12:00:10.294Z,94.64
2023-06-11T12:01:10.193Z,95.03
2023-06-11T12:02:10.101Z,93.03
2023-06-11T12:03:10.195Z,89.69
2023-06-11T12:04:10.032Z,88.79
2023-06-11T12:05:10.028Z,84.27
2023-06-11T12:06:10.079Z,86.88
2023-06-11T12:07:10.014Z,94.02
2023-06-11T12:08:10.020Z,88.00
2023-06-11T12:09:10.040Z,90.48
2023-06-11T12:10:10.316Z,88.94
2023-06-11T12:11:09.990Z,87.06
2023-06-11T12:12:10.014Z,96.57
2023-06-11T12:13:09.985Z,93.69
2023-06-11T12:14:09.973Z,93.01
2023-06-11T12:15:08.970Z,95.86
2023-06-11T12:16:10.003Z,94.86
2023-06-11T12:17:09.113Z,93.01
2023-06-11T12:18:10.048Z,97.40
2023-06-11T12:19:22.771Z,94.54
2023-06-11T12:20:10.391Z,94.63
2023-06-11T12:21:09.937Z,94.70
2023-06-11T12:22:09.921Z,94.87
2023-06-11T12:23:08.929Z,97.88
2023-06-11T12:24:09.985Z,93.52
2023-06-11T12:25:10.049Z,88.84
2023-06-11T12:26:09.921Z,95.84
2023-06-11T12:27:12.811Z,84.82
2023-06-11T12:28:08.899Z,85.33
2023-06-11T12:29:08.889Z,86.70